Time,TemperatureF,DewpointF,PressureIn,WindDirection,WindDirectionDegrees,WindSpeedMPH,WindSpeedGustMPH,Humidity,HourlyPrecipIn,Conditions,Clouds,dailyrainin,SoftwareType,DateUTC
2013-06-22 00:00:00,59.7,53.0,30.01,East,90,1.0,2.0,78,0.00,,,0.00,Rainwise IP-100,2013-06-22 04:00:00,
2013-06-22 00:01:00,59.7,53.0,30.01,East,90,1.0,2.0,78,0.00,,,0.00,Rainwise IP-100,2013-06-22 04:01:00,
2013-06-22 00:06:00,59.6,53.0,30.01,East,90,2.0,2.0,79,0.00,,,0.00,Rainwise IP-100,2013-06-22 04:06:00,
2013-06-22 00:11:00,59.5,52.0,30.01,ESE,112,1.0,2.0,76,0.00,,,0.00,Rainwise IP-100,2013-06-22 04:11:00,
2013-06-22 00:16:00,59.8,54.0,30.01,East,90,1.0,2.0,80,0.00,,,0.00,Rainwise IP-100,2013-06-22 04:16:00,
2013-06-22 00:21:00,59.9,54.0,30.01,East,90,1.0,2.0,80,0.00,,,0.00,Rainwise IP-100,2013-06-22 04:21:00,
2013-06-22 00:26:00,59.9,54.5,30.01,ESE,112,1.0,2.0,82,0.00,,,0.00,Rainwise IP-100,2013-06-22 04:26:00,
2013-06-22 00:31:00,59.9,54.0,30.01,ESE,112,2.0,2.0,80,0.00,,,0.00,Rainwise IP-100,2013-06-22 04:31:00,
2013-06-22 00:36:00,59.6,52.0,30.01,ESE,112,1.0,2.0,76,0.00,,,0.00,Rainwise IP-100,2013-06-22 04:36:00,
2013-06-22 00:41:00,59.4,52.0,30.01,ESE,112,2.0,2.0,76,0.00,,,0.00,Rainwise IP-100,2013-06-22 04:41:00,
2013-06-22 00:46:00,60.0,54.0,30.01,ESE,112,2.0,2.0,80,0.00,,,0.00,Rainwise IP-100,2013-06-22 04:46:00,
2013-06-22 00:51:00,60.4,54.5,30.01,ESE,112,1.0,2.0,82,0.00,,,0.00,Rainwise IP-100,2013-06-22 04:51:00,
2013-06-22 00:56:00,60.7,55.0,30.01,ESE,112,1.0,2.0,83,0.00,,,0.00,Rainwise IP-100,2013-06-22 04:56:00,
2013-06-22 01:01:00,60.8,55.0,30.01,ESE,112,2.0,2.0,81,0.00,,,0.00,Rainwise IP-100,2013-06-22 05:01:00,
2013-06-22 01:06:00,60.4,53.5,30.01,ESE,112,2.0,2.0,77,0.00,,,0.00,Rainwise IP-100,2013-06-22 05:06:00,
2013-06-22 01:11:00,59.7,50.5,30.01,ESE,112,1.0,2.0,72,0.00,,,0.00,Rainwise IP-100,2013-06-22 05:11:00,
2013-06-22 01:16:00,59.8,50.0,30.01,East,90,1.0,2.0,69,0.00,,,0.00,Rainwise IP-100,2013-06-22 05:16:00,
2013-06-22 01:21:00,59.7,47.5,30.01,East,90,2.0,2.0,64,0.00,,,0.00,Rainwise IP-100,2013-06-22 05:21:00,
2013-06-22 01:26:00,59.8,48.0,30.01,East,90,1.0,2.0,65,0.00,,,0.00,Rainwise IP-100,2013-06-22 05:26:00,
2013-06-22 01:30:00,59.7,47.5,30.00,East,90,1.0,2.0,64,0.00,,,0.00,Rainwise IP-100,2013-06-22 05:30:00,
2013-06-22 01:35:00,59.8,48.0,30.01,East,90,2.0,2.0,65,0.00,,,0.00,Rainwise IP-100,2013-06-22 05:35:00,
2013-06-22 01:40:00,59.5,45.0,30.00,East,90,2.0,2.0,58,0.00,,,0.00,Rainwise IP-100,2013-06-22 05:40:00,
2013-06-22 01:45:00,59.6,44.0,30.01,East,90,2.0,2.0,57,0.00,,,0.00,Rainwise IP-100,2013-06-22 05:45:00,
2013-06-22 01:50:00,58.8,38.0,30.01,East,90,2.0,2.0,46,0.00,,,0.00,Rainwise IP-100,2013-06-22 05:50:00,
2013-06-22 01:55:00,58.3,35.0,30.01,East,90,1.0,2.0,41,0.00,,,0.00,Rainwise IP-100,2013-06-22 05:55:00,
2013-06-22 02:00:00,58.1,36.0,30.01,East,90,1.0,2.0,43,0.00,,,0.00,Rainwise IP-100,2013-06-22 06:00:00,
2013-06-22 02:05:00,58.2,39.0,30.01,East,90,1.0,2.0,49,0.00,,,0.00,Rainwise IP-100,2013-06-22 06:05:00,
2013-06-22 02:10:00,57.9,36.0,30.01,East,90,1.0,2.0,43,0.00,,,0.00,Rainwise IP-100,2013-06-22 06:10:00,
2013-06-22 02:15:00,57.8,32.0,30.01,East,90,2.0,2.0,36,0.00,,,0.00,Rainwise IP-100,2013-06-22 06:15:00,
2013-06-22 02:20:00,58.0,32.0,30.00,East,90,1.0,2.0,36,0.00,,,0.00,Rainwise IP-100,2013-06-22 06:20:00,
2013-06-22 02:25:00,58.6,36.0,30.00,East,90,2.0,2.0,41,0.00,,,0.00,Rainwise IP-100,2013-06-22 06:25:00,
2013-06-22 02:30:00,59.0,36.0,30.00,East,90,2.0,2.0,41,0.00,,,0.00,Rainwise IP-100,2013-06-22 06:30:00,
2013-06-22 02:35:00,58.9,36.0,30.00,East,90,2.0,2.0,41,0.00,,,0.00,Rainwise IP-100,2013-06-22 06:35:00,
2013-06-22 02:40:00,58.9,42.0,30.00,East,90,1.0,2.0,53,0.00,,,0.00,Rainwise IP-100,2013-06-22 06:40:00,
2013-06-22 02:45:00,58.6,40.0,30.00,East,90,0.0,2.0,49,0.00,,,0.00,Rainwise IP-100,2013-06-22 06:45:00,
2013-06-22 02:50:00,58.3,36.0,30.00,East,90,0.0,0.0,43,0.00,,,0.00,Rainwise IP-100,2013-06-22 06:50:00,
2013-06-22 02:55:00,58.0,32.0,30.00,East,90,0.0,0.0,37,0.00,,,0.00,Rainwise IP-100,2013-06-22 06:55:00,
2013-06-22 03:00:00,57.9,32.0,30.00,East,90,0.0,0.0,37,0.00,,,0.00,Rainwise IP-100,2013-06-22 07:00:00,
2013-06-22 03:05:00,57.7,29.0,30.00,East,90,1.0,2.0,33,0.00,,,0.00,Rainwise IP-100,2013-06-22 07:05:00,
2013-06-22 03:10:00,57.9,38.0,30.00,East,90,1.0,2.0,46,0.00,,,0.00,Rainwise IP-100,2013-06-22 07:10:00,
2013-06-22 03:15:00,57.8,32.0,30.00,ESE,112,2.0,2.0,36,0.00,,,0.00,Rainwise IP-100,2013-06-22 07:15:00,
2013-06-22 03:20:00,57.9,24.0,30.00,East,90,2.0,2.0,26,0.00,,,0.00,Rainwise IP-100,2013-06-22 07:20:00,
2013-06-22 03:25:00,58.2,18.0,30.00,East,90,2.0,2.0,20,0.00,,,0.00,Rainwise IP-100,2013-06-22 07:25:00,
2013-06-22 03:30:00,58.2,14.0,30.00,East,90,0.0,2.0,17,0.00,,,0.00,Rainwise IP-100,2013-06-22 07:30:00,
2013-06-22 03:35:00,57.9,26.0,30.00,East,90,0.0,0.0,28,0.00,,,0.00,Rainwise IP-100,2013-06-22 07:35:00,
2013-06-22 03:40:00,57.8,0.0,30.00,East,90,1.0,2.0,9,0.00,,,0.00,Rainwise IP-100,2013-06-22 07:40:00,
2013-06-22 03:45:00,57.5,-13.0,30.00,East,90,1.0,2.0,5,0.00,,,0.00,Rainwise IP-100,2013-06-22 07:45:00,
2013-06-22 03:50:00,57.2,-23.0,30.00,East,90,2.0,2.0,2,0.00,,,0.00,Rainwise IP-100,2013-06-22 07:50:00,
2013-06-22 03:55:00,57.8,-40.0,29.99,East,90,1.0,2.0,0,0.00,,,0.00,Rainwise IP-100,2013-06-22 07:55:00,
2013-06-22 04:00:00,57.9,-23.0,30.00,East,90,2.0,2.0,3,0.00,,,0.00,Rainwise IP-100,2013-06-22 08:00:00,
2013-06-22 04:05:00,58.1,-6.0,30.00,East,90,1.0,2.0,6,0.00,,,0.00,Rainwise IP-100,2013-06-22 08:05:00,
2013-06-22 04:10:00,57.9,11.0,30.00,East,90,0.0,2.0,15,0.00,,,0.00,Rainwise IP-100,2013-06-22 08:10:00,
2013-06-22 04:15:00,57.6,0.0,30.00,East,90,0.0,0.0,8,0.00,,,0.00,Rainwise IP-100,2013-06-22 08:15:00,
2013-06-22 04:20:00,57.2,-40.0,30.00,East,90,0.0,0.0,0,0.00,,,0.00,Rainwise IP-100,2013-06-22 08:20:00,
2013-06-22 04:25:00,57.1,-40.0,30.00,East,90,2.0,2.0,0,0.00,,,0.00,Rainwise IP-100,2013-06-22 08:25:00,
2013-06-22 04:30:00,57.2,8.0,30.00,East,90,2.0,2.0,12,0.00,,,0.00,Rainwise IP-100,2013-06-22 08:30:00,
2013-06-22 04:35:00,57.1,11.0,30.00,East,90,1.0,2.0,14,0.00,,,0.00,Rainwise IP-100,2013-06-22 08:35:00,
2013-06-22 04:40:00,56.7,-23.0,30.00,East,90,2.0,2.0,2,0.00,,,0.00,Rainwise IP-100,2013-06-22 08:40:00,
2013-06-22 04:45:00,57.2,-6.0,30.00,East,90,2.0,2.0,6,0.00,,,0.00,Rainwise IP-100,2013-06-22 08:45:00,
2013-06-22 04:50:00,57.5,11.0,30.00,East,90,2.0,2.0,14,0.00,,,0.00,Rainwise IP-100,2013-06-22 08:50:00,
2013-06-22 04:55:00,57.7,23.0,30.00,East,90,2.0,2.0,25,0.00,,,0.00,Rainwise IP-100,2013-06-22 08:55:00,
2013-06-22 05:00:00,57.8,23.0,30.00,East,90,2.0,2.0,25,0.00,,,0.00,Rainwise IP-100,2013-06-22 09:00:00,
2013-06-22 05:05:00,57.9,24.0,30.00,East,90,2.0,2.0,27,0.00,,,0.00,Rainwise IP-100,2013-06-22 09:05:00,
2013-06-22 05:10:00,57.7,18.0,30.00,East,90,2.0,2.0,20,0.00,,,0.00,Rainwise IP-100,2013-06-22 09:10:00,
2013-06-22 05:15:00,57.7,21.0,30.00,East,90,1.0,2.0,22,0.00,,,0.00,Rainwise IP-100,2013-06-22 09:15:00,
2013-06-22 05:20:00,57.8,24.0,30.00,East,90,2.0,2.0,27,0.00,,,0.00,Rainwise IP-100,2013-06-22 09:20:00,
2013-06-22 05:25:00,57.8,24.0,30.00,East,90,0.0,2.0,26,0.00,,,0.00,Rainwise IP-100,2013-06-22 09:25:00,
2013-06-22 05:30:00,57.7,23.0,30.00,East,90,0.0,0.0,25,0.00,,,0.00,Rainwise IP-100,2013-06-22 09:30:00,
2013-06-22 05:35:00,57.4,14.0,30.00,East,90,0.0,0.0,17,0.00,,,0.00,Rainwise IP-100,2013-06-22 09:35:00,
2013-06-22 05:40:00,57.3,8.0,30.00,East,90,0.0,0.0,13,0.00,,,0.00,Rainwise IP-100,2013-06-22 09:40:00,
2013-06-22 05:45:00,57.3,8.0,30.00,East,90,0.0,0.0,13,0.00,,,0.00,Rainwise IP-100,2013-06-22 09:45:00,
2013-06-22 05:50:00,57.2,0.0,30.00,East,90,0.0,0.0,8,0.00,,,0.00,Rainwise IP-100,2013-06-22 09:50:00,
2013-06-22 05:55:00,57.2,-23.0,30.00,East,90,0.0,0.0,3,0.00,,,0.00,Rainwise IP-100,2013-06-22 09:55:00,
2013-06-22 06:00:00,57.3,-40.0,30.01,East,90,0.0,0.0,0,0.00,,,0.00,Rainwise IP-100,2013-06-22 10:00:00,
2013-06-22 06:05:00,57.3,-40.0,30.01,East,90,2.0,2.0,1,0.00,,,0.00,Rainwise IP-100,2013-06-22 10:05:00,
2013-06-22 06:10:00,57.7,-6.0,30.01,East,90,2.0,2.0,7,0.00,,,0.00,Rainwise IP-100,2013-06-22 10:10:00,
2013-06-22 06:15:00,58.2,14.0,30.01,East,90,0.0,2.0,16,0.00,,,0.00,Rainwise IP-100,2013-06-22 10:15:00,
2013-06-22 06:20:00,58.4,8.0,30.00,East,90,0.0,1.0,12,0.00,,,0.00,Rainwise IP-100,2013-06-22 10:20:00,
2013-06-22 06:25:00,58.5,8.0,30.01,East,90,0.0,0.0,12,0.00,,,0.00,Rainwise IP-100,2013-06-22 10:25:00,
2013-06-22 06:30:00,58.7,8.0,30.01,East,90,0.0,0.0,12,0.00,,,0.00,Rainwise IP-100,2013-06-22 10:30:00,
2013-06-22 06:35:00,58.6,23.0,30.01,East,90,0.0,0.0,24,0.00,,,0.00,Rainwise IP-100,2013-06-22 10:35:00,
2013-06-22 06:40:00,58.6,23.0,30.01,East,90,0.0,0.0,24,0.00,,,0.00,Rainwise IP-100,2013-06-22 10:40:00,
2013-06-22 06:45:00,58.8,23.0,30.01,East,90,0.0,0.0,23,0.00,,,0.00,Rainwise IP-100,2013-06-22 10:45:00,
2013-06-22 06:50:00,58.9,18.0,30.01,East,90,0.0,0.0,19,0.00,,,0.00,Rainwise IP-100,2013-06-22 10:50:00,
2013-06-22 06:55:00,59.0,21.0,30.01,East,90,0.0,0.0,21,0.00,,,0.00,Rainwise IP-100,2013-06-22 10:55:00,
2013-06-22 07:00:00,59.1,23.0,30.01,East,90,0.0,0.0,23,0.00,,,0.00,Rainwise IP-100,2013-06-22 11:00:00,
2013-06-22 07:05:00,59.5,21.0,30.01,East,90,0.0,0.0,22,0.00,,,0.00,Rainwise IP-100,2013-06-22 11:05:00,
2013-06-22 07:10:00,59.9,31.0,30.02,East,90,0.0,0.0,33,0.00,,,0.00,Rainwise IP-100,2013-06-22 11:10:00,
2013-06-22 07:15:00,60.1,35.0,30.02,East,90,0.0,0.0,39,0.00,,,0.00,Rainwise IP-100,2013-06-22 11:15:00,
2013-06-22 07:20:00,60.5,44.0,30.02,East,90,0.0,0.0,54,0.00,,,0.00,Rainwise IP-100,2013-06-22 11:20:00,
2013-06-22 07:25:00,60.9,48.0,30.02,East,90,0.0,0.0,63,0.00,,,0.00,Rainwise IP-100,2013-06-22 11:25:00,
2013-06-22 07:30:00,61.5,43.0,30.02,East,90,0.0,0.0,50,0.00,,,0.00,Rainwise IP-100,2013-06-22 11:30:00,
2013-06-22 07:35:00,61.7,46.0,30.02,East,90,0.0,0.0,57,0.00,,,0.00,Rainwise IP-100,2013-06-22 11:35:00,
2013-06-22 07:40:00,61.9,47.5,30.02,East,90,0.0,0.0,59,0.00,,,0.00,Rainwise IP-100,2013-06-22 11:40:00,
2013-06-22 07:45:00,62.4,48.0,30.02,East,90,0.0,0.0,59,0.00,,,0.00,Rainwise IP-100,2013-06-22 11:45:00,
2013-06-22 07:50:00,62.8,50.5,30.02,East,90,0.0,0.0,64,0.00,,,0.00,Rainwise IP-100,2013-06-22 11:50:00,
2013-06-22 07:55:00,62.6,50.5,30.02,NW,315,2.0,2.0,65,0.00,,,0.00,Rainwise IP-100,2013-06-22 11:55:00,
2013-06-22 08:00:00,62.6,52.0,30.02,West,270,1.0,2.0,68,0.00,,,0.00,Rainwise IP-100,2013-06-22 12:00:00,
2013-06-22 08:05:00,62.8,55.0,30.02,West,270,3.0,3.0,75,0.00,,,0.00,Rainwise IP-100,2013-06-22 12:05:00,
2013-06-22 08:10:00,63.3,56.0,30.02,West,270,1.0,3.0,76,0.00,,,0.00,Rainwise IP-100,2013-06-22 12:10:00,
2013-06-22 08:15:00,63.9,56.5,30.03,NNW,337,2.0,2.0,77,0.00,,,0.00,Rainwise IP-100,2013-06-22 12:15:00,
2013-06-22 08:20:00,64.1,56.5,30.03,North,360,1.0,4.0,77,0.00,,,0.00,Rainwise IP-100,2013-06-22 12:20:00,
2013-06-22 08:25:00,64.6,57.0,30.03,West,270,2.0,2.0,77,0.00,,,0.00,Rainwise IP-100,2013-06-22 12:25:00,
2013-06-22 08:30:00,63.8,58.0,30.03,North,360,1.0,3.0,81,0.00,,,0.00,Rainwise IP-100,2013-06-22 12:30:00,
2013-06-22 08:35:00,64.1,57.0,30.03,NNW,337,2.0,2.0,79,0.00,,,0.00,Rainwise IP-100,2013-06-22 12:35:00,
2013-06-22 08:40:00,64.3,58.0,30.03,NNW,337,0.0,2.0,80,0.00,,,0.00,Rainwise IP-100,2013-06-22 12:40:00,
2013-06-22 08:45:00,64.9,59.0,30.03,NNW,337,1.0,2.0,80,0.00,,,0.00,Rainwise IP-100,2013-06-22 12:45:00,
2013-06-22 08:50:00,65.2,59.0,30.04,NNW,337,1.0,3.0,81,0.00,,,0.00,Rainwise IP-100,2013-06-22 12:50:00,
2013-06-22 08:55:00,65.7,60.0,30.04,NW,315,2.0,2.0,83,0.00,,,0.00,Rainwise IP-100,2013-06-22 12:55:00,
2013-06-22 09:00:00,66.0,61.0,30.04,NW,315,2.0,3.0,85,0.00,,,0.00,Rainwise IP-100,2013-06-22 13:00:00,
2013-06-22 09:05:00,66.4,61.5,30.04,NW,315,2.0,2.0,84,0.00,,,0.00,Rainwise IP-100,2013-06-22 13:05:00,
2013-06-22 09:10:00,66.4,61.0,30.04,NW,315,2.0,2.0,83,0.00,,,0.00,Rainwise IP-100,2013-06-22 13:10:00,
2013-06-22 09:15:00,67.1,62.0,30.04,NW,315,1.0,2.0,84,0.00,,,0.00,Rainwise IP-100,2013-06-22 13:15:00,
2013-06-22 09:20:00,67.8,63.0,30.04,NW,315,1.0,2.0,84,0.00,,,0.00,Rainwise IP-100,2013-06-22 13:20:00,
2013-06-22 09:25:00,67.9,63.5,30.04,NNW,337,1.0,3.0,86,0.00,,,0.00,Rainwise IP-100,2013-06-22 13:25:00,
2013-06-22 09:30:00,68.2,63.5,30.04,NW,315,2.0,4.0,86,0.00,,,0.00,Rainwise IP-100,2013-06-22 13:30:00,
2013-06-22 09:35:00,67.3,63.0,30.04,NNW,337,2.0,4.0,86,0.00,,,0.00,Rainwise IP-100,2013-06-22 13:35:00,
2013-06-22 09:40:00,66.9,63.0,30.04,NW,315,3.0,3.0,86,0.00,,,0.00,Rainwise IP-100,2013-06-22 13:40:00,
2013-06-22 09:45:00,66.9,62.5,30.04,NNW,337,1.0,4.0,85,0.00,,,0.00,Rainwise IP-100,2013-06-22 13:45:00,
2013-06-22 09:50:00,67.3,63.0,30.04,NNW,337,1.0,3.0,86,0.00,,,0.00,Rainwise IP-100,2013-06-22 13:50:00,
2013-06-22 09:55:00,67.8,63.5,30.04,North,360,1.0,2.0,86,0.00,,,0.00,Rainwise IP-100,2013-06-22 13:55:00,
2013-06-22 10:00:00,68.8,64.5,30.04,North,360,0.0,2.0,86,0.00,,,0.00,Rainwise IP-100,2013-06-22 14:00:00,
2013-06-22 10:05:00,67.7,63.5,30.04,NW,315,4.0,4.0,87,0.00,,,0.00,Rainwise IP-100,2013-06-22 14:05:00,
2013-06-22 10:10:00,64.7,59.5,30.04,NNW,337,1.0,6.0,83,0.00,,,0.00,Rainwise IP-100,2013-06-22 14:10:00,
2013-06-22 10:15:00,65.1,59.5,30.04,North,360,0.0,2.0,83,0.00,,,0.00,Rainwise IP-100,2013-06-22 14:15:00,
2013-06-22 10:20:00,66.2,61.0,30.04,South,180,0.0,2.0,83,0.00,,,0.00,Rainwise IP-100,2013-06-22 14:20:00,
2013-06-22 10:25:00,67.6,62.5,30.04,NNW,337,2.0,2.0,84,0.00,,,0.00,Rainwise IP-100,2013-06-22 14:25:00,
2013-06-22 10:30:00,68.6,64.0,30.04,North,360,2.0,2.0,86,0.00,,,0.00,Rainwise IP-100,2013-06-22 14:30:00,
2013-06-22 10:35:00,68.6,64.0,30.04,NW,315,0.0,2.0,86,0.00,,,0.00,Rainwise IP-100,2013-06-22 14:35:00,
2013-06-22 10:40:00,69.3,65.0,30.04,NNW,337,0.0,2.0,86,0.00,,,0.00,Rainwise IP-100,2013-06-22 14:40:00,
2013-06-22 10:45:00,69.7,65.5,30.04,NW,315,1.0,2.0,86,0.00,,,0.00,Rainwise IP-100,2013-06-22 14:45:00,
2013-06-22 10:50:00,68.6,64.0,30.05,NW,315,2.0,4.0,86,0.00,,,0.00,Rainwise IP-100,2013-06-22 14:50:00,
2013-06-22 10:55:00,68.2,63.5,30.05,NNW,337,2.0,3.0,86,0.00,,,0.00,Rainwise IP-100,2013-06-22 14:55:00,
2013-06-22 11:00:00,68.8,64.5,30.05,NNW,337,1.0,2.0,86,0.00,,,0.00,Rainwise IP-100,2013-06-22 15:00:00,
2013-06-22 11:05:00,68.9,64.5,30.05,NW,315,2.0,3.0,86,0.00,,,0.00,Rainwise IP-100,2013-06-22 15:05:00,
2013-06-22 11:07:00,68.6,64.0,30.05,NW,315,2.0,3.0,86,0.00,,,0.00,Rainwise IP-100,2013-06-22 15:07:00,
2013-06-22 11:12:00,68.0,63.5,30.05,NNW,337,3.0,4.0,86,0.00,,,0.00,Rainwise IP-100,2013-06-22 15:12:00,
2013-06-22 11:17:00,67.7,63.0,30.05,NNW,337,1.0,3.0,86,0.00,,,0.00,Rainwise IP-100,2013-06-22 15:17:00,
2013-06-22 11:22:00,67.8,63.5,30.05,NNW,337,2.0,2.0,85,0.00,,,0.00,Rainwise IP-100,2013-06-22 15:22:00,
2013-06-22 11:27:00,67.9,63.5,30.05,NW,315,2.0,2.0,85,0.00,,,0.00,Rainwise IP-100,2013-06-22 15:27:00,
2013-06-22 11:32:00,66.9,62.5,30.05,NW,315,2.0,2.0,85,0.00,,,0.00,Rainwise IP-100,2013-06-22 15:32:00,
2013-06-22 11:37:00,67.7,63.0,30.05,SW,225,2.0,4.0,85,0.00,,,0.00,Rainwise IP-100,2013-06-22 15:37:00,
2013-06-22 11:42:00,69.1,64.0,30.05,SW,225,3.0,6.0,85,0.00,,,0.00,Rainwise IP-100,2013-06-22 15:42:00,
2013-06-22 11:47:00,70.1,65.5,30.05,SE,135,2.0,6.0,85,0.00,,,0.00,Rainwise IP-100,2013-06-22 15:47:00,
2013-06-22 11:52:00,70.6,66.0,30.05,WSW,247,1.0,7.0,85,0.00,,,0.00,Rainwise IP-100,2013-06-22 15:52:00,
2013-06-22 11:57:00,70.7,66.0,30.06,ESE,112,3.0,5.0,85,0.00,,,0.00,Rainwise IP-100,2013-06-22 15:57:00,
2013-06-22 12:02:00,70.6,66.3,30.06,NNW,337,0.0,3.0,86,0.00,,,0.00,Rainwise IP-100,2013-06-22 16:02:00,
2013-06-22 12:07:00,69.8,65.5,30.06,WNW,292,0.0,2.0,86,0.00,,,0.00,Rainwise IP-100,2013-06-22 16:07:00,
2013-06-22 12:12:00,68.9,64.0,30.06,WSW,247,4.0,4.0,85,0.00,,,0.00,Rainwise IP-100,2013-06-22 16:12:00,
2013-06-22 12:17:00,69.7,65.0,30.06,SSE,157,2.0,6.0,85,0.00,,,0.00,Rainwise IP-100,2013-06-22 16:17:00,
2013-06-22 12:22:00,69.9,66.0,30.06,SE,135,0.0,4.0,86,0.00,,,0.00,Rainwise IP-100,2013-06-22 16:22:00,
2013-06-22 12:27:00,70.1,65.5,30.06,SSE,157,2.0,6.0,85,0.00,,,0.00,Rainwise IP-100,2013-06-22 16:27:00,
2013-06-22 12:32:00,69.9,65.5,30.06,SSW,202,2.0,4.0,85,0.00,,,0.00,Rainwise IP-100,2013-06-22 16:32:00,
2013-06-22 12:37:00,69.7,65.0,30.05,SW,225,1.0,4.0,85,0.00,,,0.00,Rainwise IP-100,2013-06-22 16:37:00,
2013-06-22 12:42:00,69.3,64.0,30.05,South,180,1.0,4.0,84,0.00,,,0.00,Rainwise IP-100,2013-06-22 16:42:00,
2013-06-22 12:47:00,69.1,64.0,30.05,SW,225,3.0,3.0,84,0.00,,,0.00,Rainwise IP-100,2013-06-22 16:47:00,
2013-06-22 12:52:00,68.6,63.0,30.05,SSW,202,2.0,4.0,83,0.00,,,0.00,Rainwise IP-100,2013-06-22 16:52:00,
2013-06-22 12:57:00,68.6,62.5,30.05,SSW,202,4.0,6.0,81,0.00,,,0.00,Rainwise IP-100,2013-06-22 16:57:00,
2013-06-22 13:02:00,68.4,62.0,30.05,WSW,247,5.0,6.0,80,0.00,,,0.00,Rainwise IP-100,2013-06-22 17:02:00,
2013-06-22 13:07:00,68.3,61.0,30.05,SW,225,1.0,6.0,77,0.00,,,0.00,Rainwise IP-100,2013-06-22 17:07:00,
2013-06-22 13:12:00,68.6,61.0,30.05,WSW,247,2.0,6.0,77,0.00,,,0.00,Rainwise IP-100,2013-06-22 17:12:00,
2013-06-22 13:17:00,68.7,61.5,30.05,SSW,202,2.0,6.0,79,0.00,,,0.00,Rainwise IP-100,2013-06-22 17:17:00,
2013-06-22 13:22:00,69.0,61.5,30.05,SSW,202,1.0,6.0,78,0.00,,,0.00,Rainwise IP-100,2013-06-22 17:22:00,
2013-06-22 13:27:00,69.4,62.0,30.05,ESE,112,2.0,5.0,78,0.00,,,0.00,Rainwise IP-100,2013-06-22 17:27:00,
2013-06-22 13:32:00,69.3,62.0,30.05,WSW,247,5.0,7.0,78,0.00,,,0.00,Rainwise IP-100,2013-06-22 17:32:00,
2013-06-22 13:37:00,69.3,61.0,30.05,WSW,247,2.0,6.0,75,0.00,,,0.00,Rainwise IP-100,2013-06-22 17:37:00,
2013-06-22 13:42:00,69.3,59.5,30.05,WSW,247,1.0,5.0,71,0.00,,,0.00,Rainwise IP-100,2013-06-22 17:42:00,
2013-06-22 13:47:00,69.6,60.5,30.05,WSW,247,2.0,4.0,72,0.00,,,0.00,Rainwise IP-100,2013-06-22 17:47:00,
2013-06-22 13:52:00,69.9,60.5,30.05,WSW,247,2.0,2.0,72,0.00,,,0.00,Rainwise IP-100,2013-06-22 17:52:00,
2013-06-22 13:57:00,70.5,63.5,30.05,SSW,202,1.0,5.0,78,0.00,,,0.00,Rainwise IP-100,2013-06-22 17:57:00,
2013-06-22 14:02:00,70.6,63.5,30.05,SSE,157,2.0,6.0,78,0.00,,,0.00,Rainwise IP-100,2013-06-22 18:02:00,
2013-06-22 14:07:00,71.0,65.0,30.05,WSW,247,3.0,6.0,81,0.00,,,0.00,Rainwise IP-100,2013-06-22 18:07:00,
2013-06-22 14:12:00,71.3,66.0,30.05,NW,315,2.0,4.0,83,0.00,,,0.00,Rainwise IP-100,2013-06-22 18:12:00,
2013-06-22 14:17:00,70.4,65.0,30.05,NW,315,2.0,3.0,82,0.00,,,0.00,Rainwise IP-100,2013-06-22 18:17:00,
2013-06-22 14:22:00,70.1,63.0,30.05,West,270,2.0,2.0,79,0.00,,,0.00,Rainwise IP-100,2013-06-22 18:22:00,
2013-06-22 14:27:00,70.6,64.5,30.05,NW,315,2.0,6.0,81,0.00,,,0.00,Rainwise IP-100,2013-06-22 18:27:00,
2013-06-22 14:32:00,70.9,65.0,30.05,West,270,0.0,2.0,81,0.00,,,0.00,Rainwise IP-100,2013-06-22 18:32:00,
2013-06-22 14:37:00,70.8,64.5,30.05,WNW,292,1.0,2.0,80,0.00,,,0.00,Rainwise IP-100,2013-06-22 18:37:00,
2013-06-22 14:42:00,70.7,64.5,30.05,West,270,1.0,2.0,81,0.00,,,0.00,Rainwise IP-100,2013-06-22 18:42:00,
2013-06-22 14:47:00,70.8,65.0,30.05,NW,315,1.0,2.0,81,0.00,,,0.00,Rainwise IP-100,2013-06-22 18:47:00,
2013-06-22 14:52:00,71.0,65.0,30.05,West,270,2.0,2.0,81,0.00,,,0.00,Rainwise IP-100,2013-06-22 18:52:00,
2013-06-22 14:57:00,71.7,66.3,30.05,WSW,247,0.0,2.0,83,0.00,,,0.00,Rainwise IP-100,2013-06-22 18:57:00,
2013-06-22 15:02:00,71.9,66.7,30.04,West,270,2.0,2.0,83,0.00,,,0.00,Rainwise IP-100,2013-06-22 19:02:00,
2013-06-22 15:07:00,71.9,66.7,30.04,West,270,1.0,2.0,83,0.00,,,0.00,Rainwise IP-100,2013-06-22 19:07:00,
2013-06-22 15:12:00,72.3,66.7,30.04,SW,225,1.0,2.0,83,0.00,,,0.00,Rainwise IP-100,2013-06-22 19:12:00,
2013-06-22 15:17:00,73.3,68.5,30.04,South,180,0.0,2.0,84,0.00,,,0.00,Rainwise IP-100,2013-06-22 19:17:00,
2013-06-22 15:22:00,73.8,68.5,30.04,West,270,2.0,2.0,83,0.00,,,0.00,Rainwise IP-100,2013-06-22 19:22:00,
2013-06-22 15:27:00,74.2,69.0,30.04,West,270,2.0,2.0,83,0.00,,,0.00,Rainwise IP-100,2013-06-22 19:27:00,
2013-06-22 15:32:00,74.9,69.7,30.04,WNW,292,1.0,2.0,83,0.00,,,0.00,Rainwise IP-100,2013-06-22 19:32:00,
2013-06-22 15:37:00,75.3,70.0,30.04,West,270,1.0,2.0,83,0.00,,,0.00,Rainwise IP-100,2013-06-22 19:37:00,
2013-06-22 15:42:00,74.5,69.3,30.04,NW,315,2.0,2.0,83,0.00,,,0.00,Rainwise IP-100,2013-06-22 19:42:00,
2013-06-22 15:47:00,73.9,69.0,30.04,WNW,292,1.0,2.0,84,0.00,,,0.00,Rainwise IP-100,2013-06-22 19:47:00,
2013-06-22 15:52:00,73.3,68.5,30.04,WNW,292,2.0,2.0,84,0.00,,,0.00,Rainwise IP-100,2013-06-22 19:52:00,
2013-06-22 15:57:00,72.9,68.0,30.03,WNW,292,2.0,2.0,84,0.00,,,0.00,Rainwise IP-100,2013-06-22 19:57:00,
2013-06-22 16:02:00,73.2,68.0,30.03,WNW,292,0.0,2.0,83,0.00,,,0.00,Rainwise IP-100,2013-06-22 20:02:00,
2013-06-22 16:07:00,73.7,69.0,30.02,WSW,247,1.0,2.0,84,0.00,,,0.00,Rainwise IP-100,2013-06-22 20:07:00,
2013-06-22 16:12:00,73.4,68.5,30.02,West,270,1.0,2.0,84,0.00,,,0.00,Rainwise IP-100,2013-06-22 20:12:00,
2013-06-22 16:17:00,72.8,67.5,30.02,NW,315,1.0,2.0,84,0.00,,,0.00,Rainwise IP-100,2013-06-22 20:17:00,
2013-06-22 16:22:00,72.3,67.0,30.02,NW,315,0.0,2.0,84,0.00,,,0.00,Rainwise IP-100,2013-06-22 20:22:00,
2013-06-22 16:27:00,72.4,67.0,30.01,WSW,247,1.0,2.0,84,0.00,,,0.00,Rainwise IP-100,2013-06-22 20:27:00,
2013-06-22 16:32:00,72.2,67.0,30.01,SSE,157,4.0,5.0,84,0.00,,,0.00,Rainwise IP-100,2013-06-22 20:32:00,
2013-06-22 16:37:00,72.2,67.0,30.01,SSW,202,2.0,6.0,84,0.00,,,0.00,Rainwise IP-100,2013-06-22 20:37:00,
2013-06-22 16:42:00,72.2,67.0,30.01,SSE,157,2.0,6.0,84,0.00,,,0.00,Rainwise IP-100,2013-06-22 20:42:00,
2013-06-22 16:47:00,71.6,66.7,30.00,South,180,2.0,5.0,85,0.00,,,0.00,Rainwise IP-100,2013-06-22 20:47:00,
2013-06-22 16:52:00,70.8,66.3,30.00,South,180,1.0,7.0,85,0.00,,,0.00,Rainwise IP-100,2013-06-22 20:52:00,
2013-06-22 16:57:00,70.2,65.5,30.00,WSW,247,2.0,4.0,85,0.00,,,0.00,Rainwise IP-100,2013-06-22 20:57:00,
2013-06-22 17:02:00,69.8,64.5,30.00,West,270,2.0,6.0,84,0.00,,,0.00,Rainwise IP-100,2013-06-22 21:02:00,
2013-06-22 17:07:00,69.1,63.5,30.00,WSW,247,2.0,6.0,83,0.00,,,0.00,Rainwise IP-100,2013-06-22 21:07:00,
2013-06-22 17:12:00,68.5,62.5,30.00,SSE,157,2.0,5.0,82,0.00,,,0.00,Rainwise IP-100,2013-06-22 21:12:00,
2013-06-22 17:17:00,67.9,62.5,29.99,SW,225,2.0,3.0,83,0.00,,,0.00,Rainwise IP-100,2013-06-22 21:17:00,
2013-06-22 17:22:00,67.3,61.5,29.99,SW,225,0.0,3.0,81,0.00,,,0.00,Rainwise IP-100,2013-06-22 21:22:00,
2013-06-22 17:27:00,66.7,61.5,29.99,WNW,292,2.0,2.0,83,0.00,,,0.00,Rainwise IP-100,2013-06-22 21:27:00,
2013-06-22 17:32:00,65.4,59.0,29.99,NW,315,0.0,2.0,80,0.00,,,0.00,Rainwise IP-100,2013-06-22 21:32:00,
2013-06-22 17:37:00,65.3,57.0,29.98,ESE,112,0.0,2.0,75,0.00,,,0.00,Rainwise IP-100,2013-06-22 21:37:00,
2013-06-22 17:42:00,65.4,57.0,29.98,SSE,157,1.0,4.0,75,0.00,,,0.00,Rainwise IP-100,2013-06-22 21:42:00,
2013-06-22 17:47:00,65.4,57.0,29.98,SSE,157,1.0,6.0,75,0.00,,,0.00,Rainwise IP-100,2013-06-22 21:47:00,
2013-06-22 17:52:00,65.1,56.5,29.98,SSE,157,2.0,6.0,74,0.00,,,0.00,Rainwise IP-100,2013-06-22 21:52:00,
2013-06-22 17:57:00,64.9,56.0,29.98,SE,135,1.0,4.0,73,0.00,,,0.00,Rainwise IP-100,2013-06-22 21:57:00,
2013-06-22 18:02:00,64.9,56.0,29.98,SE,135,1.0,7.0,73,0.00,,,0.00,Rainwise IP-100,2013-06-22 22:02:00,
2013-06-22 18:07:00,65.1,57.0,29.97,SSW,202,1.0,3.0,75,0.00,,,0.00,Rainwise IP-100,2013-06-22 22:07:00,
2013-06-22 18:12:00,65.3,57.0,29.96,SSW,202,2.0,5.0,75,0.00,,,0.00,Rainwise IP-100,2013-06-22 22:12:00,
2013-06-22 18:17:00,65.4,57.0,29.96,ESE,112,2.0,4.0,75,0.00,,,0.00,Rainwise IP-100,2013-06-22 22:17:00,
2013-06-22 18:22:00,65.6,57.0,29.97,SE,135,2.0,4.0,75,0.00,,,0.00,Rainwise IP-100,2013-06-22 22:22:00,
2013-06-22 18:27:00,65.7,57.0,29.97,ESE,112,1.0,5.0,74,0.00,,,0.00,Rainwise IP-100,2013-06-22 22:27:00,
2013-06-22 18:32:00,65.7,57.0,29.97,ESE,112,3.0,6.0,75,0.00,,,0.00,Rainwise IP-100,2013-06-22 22:32:00,
2013-06-22 18:37:00,65.4,57.0,29.97,SSW,202,1.0,6.0,75,0.00,,,0.00,Rainwise IP-100,2013-06-22 22:37:00,
2013-06-22 18:42:00,65.0,56.5,29.97,SSE,157,2.0,6.0,74,0.00,,,0.00,Rainwise IP-100,2013-06-22 22:42:00,
2013-06-22 18:47:00,64.7,55.0,29.97,SSE,157,1.0,6.0,72,0.00,,,0.00,Rainwise IP-100,2013-06-22 22:47:00,
2013-06-22 18:52:00,64.6,56.0,29.97,SE,135,2.0,6.0,73,0.00,,,0.00,Rainwise IP-100,2013-06-22 22:52:00,
2013-06-22 18:57:00,64.3,54.0,29.97,SE,135,2.0,4.0,69,0.00,,,0.00,Rainwise IP-100,2013-06-22 22:57:00,
2013-06-22 19:02:00,64.2,53.5,29.97,South,180,1.0,5.0,68,0.00,,,0.00,Rainwise IP-100,2013-06-22 23:02:00,
2013-06-22 19:07:00,63.9,53.0,29.96,SE,135,2.0,5.0,67,0.00,,,0.00,Rainwise IP-100,2013-06-22 23:07:00,
2013-06-22 19:12:00,64.0,53.0,29.96,SE,135,2.0,3.0,66,0.00,,,0.00,Rainwise IP-100,2013-06-22 23:12:00,
2013-06-22 19:17:00,64.1,53.0,29.96,NE,45,1.0,2.0,66,0.00,,,0.00,Rainwise IP-100,2013-06-22 23:17:00,
2013-06-22 19:22:00,64.1,53.0,29.96,South,180,2.0,2.0,66,0.00,,,0.00,Rainwise IP-100,2013-06-22 23:22:00,
2013-06-22 19:27:00,64.1,51.0,29.96,SSW,202,0.0,2.0,64,0.00,,,0.00,Rainwise IP-100,2013-06-22 23:27:00,
2013-06-22 19:32:00,64.0,51.0,29.96,SSW,202,2.0,4.0,64,0.00,,,0.00,Rainwise IP-100,2013-06-22 23:32:00,
2013-06-22 19:37:00,63.9,51.0,29.96,SE,135,1.0,3.0,64,0.00,,,0.00,Rainwise IP-100,2013-06-22 23:37:00,
2013-06-22 19:42:00,63.9,51.0,29.96,SW,225,1.0,2.0,64,0.00,,,0.00,Rainwise IP-100,2013-06-22 23:42:00,
2013-06-22 19:47:00,63.8,51.0,29.96,South,180,2.0,3.0,64,0.00,,,0.00,Rainwise IP-100,2013-06-22 23:47:00,
2013-06-22 19:52:00,63.7,50.5,29.96,South,180,2.0,2.0,62,0.00,,,0.00,Rainwise IP-100,2013-06-22 23:52:00,
2013-06-22 19:57:00,63.5,50.5,29.96,SSE,157,2.0,3.0,62,0.00,,,0.00,Rainwise IP-100,2013-06-22 23:57:00,
2013-06-22 20:02:00,63.3,49.0,29.95,SSE,157,2.0,6.0,60,0.00,,,0.00,Rainwise IP-100,2013-06-23 00:02:00,
2013-06-22 20:07:00,63.1,47.0,29.95,South,180,2.0,7.0,55,0.00,,,0.00,Rainwise IP-100,2013-06-23 00:07:00,
2013-06-22 20:12:00,62.9,46.0,29.95,ESE,112,6.0,6.0,54,0.00,,,0.00,Rainwise IP-100,2013-06-23 00:12:00,
2013-06-22 20:17:00,62.7,45.0,29.95,South,180,1.0,7.0,52,0.00,,,0.00,Rainwise IP-100,2013-06-23 00:17:00,
2013-06-22 20:22:00,62.6,45.0,29.96,SSW,202,1.0,2.0,52,0.00,,,0.00,Rainwise IP-100,2013-06-23 00:22:00,
2013-06-22 20:27:00,62.5,44.0,29.96,SE,135,2.0,4.0,50,0.00,,,0.00,Rainwise IP-100,2013-06-23 00:27:00,
2013-06-22 20:32:00,62.3,43.0,29.96,ESE,112,2.0,6.0,49,0.00,,,0.00,Rainwise IP-100,2013-06-23 00:32:00,
2013-06-22 20:37:00,62.2,42.0,29.96,SE,135,1.0,4.0,48,0.00,,,0.00,Rainwise IP-100,2013-06-23 00:37:00,
2013-06-22 20:42:00,61.9,40.0,29.96,SE,135,1.0,4.0,45,0.00,,,0.00,Rainwise IP-100,2013-06-23 00:42:00,
2013-06-22 20:47:00,61.9,39.0,29.96,ESE,112,2.0,6.0,42,0.00,,,0.00,Rainwise IP-100,2013-06-23 00:47:00,
2013-06-22 20:52:00,61.9,37.0,29.95,SE,135,1.0,5.0,39,0.00,,,0.00,Rainwise IP-100,2013-06-23 00:52:00,
2013-06-22 20:57:00,61.8,36.0,29.95,ESE,112,2.0,4.0,37,0.00,,,0.00,Rainwise IP-100,2013-06-23 00:57:00,
2013-06-22 21:02:00,61.7,33.0,29.95,ESE,112,4.0,4.0,35,0.00,,,0.00,Rainwise IP-100,2013-06-23 01:02:00,
2013-06-22 21:07:00,61.7,33.0,29.96,SE,135,2.0,5.0,34,0.00,,,0.00,Rainwise IP-100,2013-06-23 01:07:00,
2013-06-22 21:12:00,61.6,32.0,29.95,ESE,112,4.0,5.0,33,0.00,,,0.00,Rainwise IP-100,2013-06-23 01:12:00,
2013-06-22 21:17:00,61.6,32.0,29.95,ESE,112,2.0,4.0,32,0.00,,,0.00,Rainwise IP-100,2013-06-23 01:17:00,
2013-06-22 21:22:00,61.6,32.0,29.95,SSE,157,1.0,6.0,32,0.00,,,0.00,Rainwise IP-100,2013-06-23 01:22:00,
2013-06-22 21:27:00,61.7,31.0,29.95,SSE,157,2.0,6.0,30,0.00,,,0.00,Rainwise IP-100,2013-06-23 01:27:00,
2013-06-22 21:32:00,61.7,29.0,29.96,South,180,1.0,4.0,29,0.00,,,0.00,Rainwise IP-100,2013-06-23 01:32:00,
2013-06-22 21:37:00,61.7,28.0,29.96,SSE,157,2.0,3.0,27,0.00,,,0.00,Rainwise IP-100,2013-06-23 01:37:00,
2013-06-22 21:42:00,61.7,28.0,29.96,East,90,1.0,4.0,27,0.00,,,0.00,Rainwise IP-100,2013-06-23 01:42:00,
2013-06-22 21:47:00,61.7,31.0,29.96,SSE,157,3.0,3.0,30,0.00,,,0.00,Rainwise IP-100,2013-06-23 01:47:00,
2013-06-22 21:52:00,61.7,28.0,29.96,SE,135,2.0,5.0,28,0.00,,,0.00,Rainwise IP-100,2013-06-23 01:52:00,
2013-06-22 21:57:00,61.8,29.0,29.96,SSE,157,3.0,4.0,28,0.00,,,0.00,Rainwise IP-100,2013-06-23 01:57:00,
2013-06-22 22:02:00,61.8,29.0,29.96,SE,135,2.0,5.0,28,0.00,,,0.00,Rainwise IP-100,2013-06-23 02:02:00,
2013-06-22 22:07:00,61.9,29.0,29.97,SSE,157,1.0,3.0,28,0.00,,,0.00,Rainwise IP-100,2013-06-23 02:07:00,
2013-06-22 22:12:00,61.9,28.0,29.96,SE,135,3.0,6.0,27,0.00,,,0.00,Rainwise IP-100,2013-06-23 02:12:00,
2013-06-22 22:17:00,61.9,26.0,29.96,ESE,112,2.0,4.0,25,0.00,,,0.00,Rainwise IP-100,2013-06-23 02:17:00,
2013-06-22 22:22:00,62.1,28.0,29.96,SE,135,2.0,4.0,26,0.00,,,0.00,Rainwise IP-100,2013-06-23 02:22:00,
2013-06-22 22:27:00,62.2,28.0,29.96,SE,135,3.0,4.0,27,0.00,,,0.00,Rainwise IP-100,2013-06-23 02:27:00,
2013-06-22 22:32:00,62.3,31.0,29.96,ESE,112,2.0,6.0,29,0.00,,,0.00,Rainwise IP-100,2013-06-23 02:32:00,
2013-06-22 22:37:00,62.3,31.0,29.96,ESE,112,2.0,4.0,29,0.00,,,0.00,Rainwise IP-100,2013-06-23 02:37:00,
2013-06-22 22:42:00,62.1,28.0,29.96,SSE,157,2.0,3.0,27,0.00,,,0.00,Rainwise IP-100,2013-06-23 02:42:00,
2013-06-22 22:47:00,61.9,24.0,29.96,SSE,157,0.0,4.0,24,0.00,,,0.00,Rainwise IP-100,2013-06-23 02:47:00,
2013-06-22 22:52:00,62.0,24.0,29.96,ESE,112,1.0,4.0,23,0.00,,,0.00,Rainwise IP-100,2013-06-23 02:52:00,
2013-06-22 22:57:00,61.9,24.0,29.96,East,90,1.0,2.0,23,0.00,,,0.00,Rainwise IP-100,2013-06-23 02:57:00,
2013-06-22 23:02:00,61.9,24.0,29.96,SSE,157,2.0,6.0,23,0.00,,,0.00,Rainwise IP-100,2013-06-23 03:02:00,
2013-06-22 23:07:00,61.9,24.0,29.96,ESE,112,2.0,4.0,23,0.00,,,0.00,Rainwise IP-100,2013-06-23 03:07:00,
2013-06-22 23:12:00,61.9,23.0,29.96,SE,135,2.0,5.0,21,0.00,,,0.00,Rainwise IP-100,2013-06-23 03:12:00,
2013-06-22 23:17:00,61.8,21.0,29.96,ESE,112,2.0,4.0,20,0.00,,,0.00,Rainwise IP-100,2013-06-23 03:17:00,
2013-06-22 23:22:00,61.8,21.0,29.96,ESE,112,2.0,5.0,20,0.00,,,0.00,Rainwise IP-100,2013-06-23 03:22:00,
2013-06-22 23:27:00,61.7,21.0,29.96,SE,135,2.0,4.0,20,0.00,,,0.00,Rainwise IP-100,2013-06-23 03:27:00,
2013-06-22 23:32:00,61.7,18.0,29.95,South,180,1.0,4.0,19,0.00,,,0.00,Rainwise IP-100,2013-06-23 03:32:00,
2013-06-22 23:35:00,61.9,23.0,29.95,ESE,112,1.0,4.0,22,0.00,,,0.00,Rainwise IP-100,2013-06-23 03:35:00,
2013-06-22 23:40:00,61.9,29.0,29.95,SSE,157,4.0,4.0,28,0.00,,,0.00,Rainwise IP-100,2013-06-23 03:40:00,
2013-06-22 23:45:00,62.1,32.0,29.95,ENE,67,2.0,6.0,33,0.00,,,0.00,Rainwise IP-100,2013-06-23 03:45:00,
2013-06-22 23:50:00,62.0,33.0,29.95,SSE,157,2.0,7.0,34,0.00,,,0.00,Rainwise IP-100,2013-06-23 03:50:00,
2013-06-22 23:55:00,61.9,33.0,29.95,South,180,2.0,4.0,34,0.00,,,0.00,Rainwise IP-100,2013-06-23 03:55:00,